Time;durP1;ratioP1;P1;durP2;ratioP2;P2;SDS_P1;SDS_P2;PMS_P1;PMS_P2;Temp;Humidity;BMP_temperature;BMP_pressure;BME280_temperature;BME280_humidity;BME280_pressure;Samples;Min_cycle;Max_cycle;Signal;HPM_P1;HPM_P2
2023/12/11 00:02:23;;;;;;;;;;;0.60;99.90;;;;;;5017164;28;20402;-76
2023/12/11 00:04:49;;;;;;;;;;;0.70;99.90;;;;;;5015297;28;19913;-76
2023/12/11 00:07:14;;;;;;;;;;;0.70;99.90;;;;;;5020960;28;19905;-76
2023/12/11 00:09:40;;;;;;;;;;;0.60;99.90;;;;;;5023816;28;19906;-78
2023/12/11 00:12:06;;;;;;;;;;;0.50;99.90;;;;;;5024292;28;19932;-78
2023/12/11 00:14:31;;;;;;;;;;;0.40;99.90;;;;;;5022729;28;19910;-77
2023/12/11 00:16:57;;;;;;;;;;;0.40;99.90;;;;;;5023234;28;19932;-78
2023/12/11 00:19:22;;;;;;;;;;;0.50;99.90;;;;;;5019360;28;19909;-79
2023/12/11 00:21:48;;;;;;;;;;;0.50;99.90;;;;;;5017953;28;19924;-80
2023/12/11 00:24:14;;;;;;;;;;;0.40;99.90;;;;;;5018717;28;19909;-78
2023/12/11 00:26:39;;;;;;;;;;;0.30;99.90;;;;;;5018205;28;19924;-78
2023/12/11 00:29:05;;;;;;;;;;;0.30;99.90;;;;;;5019755;28;19928;-79
2023/12/11 00:31:30;;;;;;;;;;;0.20;99.90;;;;;;5017871;28;19912;-78
2023/12/11 00:33:56;;;;;;;;;;;0.10;99.90;;;;;;5017529;28;19914;-78
2023/12/11 00:36:21;;;;;;;;;;;0.10;99.90;;;;;;5021636;28;19932;-78
2023/12/11 00:38:47;;;;;;;;;;;0.10;99.90;;;;;;5017658;28;20370;-79
2023/12/11 00:41:14;;;;;;;;;;;0.10;99.90;;;;;;5017350;28;20088;-78
2023/12/11 00:43:40;;;;;;;;;;;0.00;99.90;;;;;;5021400;28;19935;-79
2023/12/11 00:46:05;;;;;;;;;;;0.10;99.90;;;;;;5022232;28;20410;-78
2023/12/11 00:48:31;;;;;;;;;;;0.00;99.90;;;;;;5018102;28;19940;-77
2023/12/11 00:50:56;;;;;;;;;;;0.00;99.90;;;;;;5015576;28;19952;-77
2023/12/11 00:53:22;;;;;;;;;;;0.10;99.90;;;;;;5012920;28;19909;-77
2023/12/11 00:55:47;;;;;;;;;;;0.20;99.90;;;;;;5013972;28;19909;-77
2023/12/11 00:58:13;;;;;;;;;;;0.20;99.90;;;;;;5014403;28;19909;-77
2023/12/11 01:00:38;;;;;;;;;;;0.20;99.90;;;;;;5013837;28;19916;-76
2023/12/11 01:03:04;;;;;;;;;;;0.20;99.90;;;;;;5012707;28;20382;-77
2023/12/11 01:05:30;;;;;;;;;;;0.20;99.90;;;;;;5012340;28;19956;-78
2023/12/11 01:07:56;;;;;;;;;;;0.20;99.90;;;;;;5013932;28;19943;-77
2023/12/11 01:10:22;;;;;;;;;;;0.30;99.90;;;;;;5012843;28;20028;-77
2023/12/11 01:12:47;;;;;;;;;;;0.30;99.90;;;;;;5014348;28;19949;-77
2023/12/11 01:15:13;;;;;;;;;;;0.10;99.90;;;;;;5012676;28;20425;-76
2023/12/11 01:17:38;;;;;;;;;;;0.10;99.90;;;;;;5012988;28;20339;-77
2023/12/11 01:20:04;;;;;;;;;;;0.00;99.90;;;;;;5012915;28;19913;-76
2023/12/11 01:22:30;;;;;;;;;;;0.00;99.90;;;;;;5013983;28;20321;-76
2023/12/11 01:24:55;;;;;;;;;;;-0.10;99.90;;;;;;5011905;28;20378;-77
2023/12/11 01:27:21;;;;;;;;;;;-0.10;99.90;;;;;;5013863;28;20366;-77
2023/12/11 01:29:46;;;;;;;;;;;-0.10;99.90;;;;;;5012838;28;19968;-76
2023/12/11 01:32:12;;;;;;;;;;;-0.10;99.90;;;;;;5013646;28;20444;-76
2023/12/11 01:34:37;;;;;;;;;;;0.00;99.90;;;;;;5012639;28;20660;-76
2023/12/11 01:37:03;;;;;;;;;;;0.00;99.90;;;;;;5013873;28;19909;-76
2023/12/11 01:39:28;;;;;;;;;;;0.10;99.90;;;;;;5013518;28;19928;-76
2023/12/11 01:41:54;;;;;;;;;;;0.00;99.90;;;;;;5014232;28;19914;-77
2023/12/11 01:44:19;;;;;;;;;;;0.00;99.90;;;;;;5013975;28;19913;-78
2023/12/11 01:46:45;;;;;;;;;;;0.10;99.90;;;;;;5016785;28;19916;-78
2023/12/11 01:49:11;;;;;;;;;;;0.10;99.90;;;;;;5015320;28;19909;-77
2023/12/11 01:51:36;;;;;;;;;;;0.30;99.90;;;;;;5013930;28;19913;-77
2023/12/11 01:54:02;;;;;;;;;;;0.20;99.90;;;;;;5015467;28;19917;-77
2023/12/11 01:56:28;;;;;;;;;;;0.00;99.90;;;;;;5012888;28;19909;-77
2023/12/11 01:58:54;;;;;;;;;;;0.00;99.90;;;;;;5013975;28;19911;-77
2023/12/11 02:01:21;;;;;;;;;;;0.00;99.90;;;;;;5013526;28;20426;-76
2023/12/11 02:03:47;;;;;;;;;;;-0.10;99.90;;;;;;5013690;28;19917;-76
2023/12/11 02:06:13;;;;;;;;;;;-0.10;99.90;;;;;;5013680;28;20378;-76
2023/12/11 02:08:38;;;;;;;;;;;-0.10;99.90;;;;;;5012093;28;19916;-77
2023/12/11 02:11:04;;;;;;;;;;;-0.10;99.90;;;;;;5015134;28;19998;-77
2023/12/11 02:13:30;;;;;;;;;;;-0.10;99.90;;;;;;5017222;28;20000;-78
2023/12/11 02:15:56;;;;;;;;;;;-0.10;99.90;;;;;;5017339;28;20368;-78
2023/12/11 02:18:21;;;;;;;;;;;-0.10;99.90;;;;;;5017834;28;19905;-78
2023/12/11 02:20:47;;;;;;;;;;;-0.10;99.90;;;;;;5015862;28;20289;-78
2023/12/11 02:23:16;;;;;;;;;;;-0.10;99.90;;;;;;5016548;28;19905;-78
2023/12/11 02:25:43;;;;;;;;;;;-0.20;99.90;;;;;;5017445;28;20711;-79
2023/12/11 02:28:09;;;;;;;;;;;-0.20;99.90;;;;;;5017974;28;19905;-78
2023/12/11 02:30:38;;;;;;;;;;;-0.20;99.90;;;;;;5016495;28;19905;-78
2023/12/11 02:33:04;;;;;;;;;;;-0.30;99.90;;;;;;5023697;28;19909;-79
2023/12/11 02:35:29;;;;;;;;;;;-0.30;99.90;;;;;;5021309;28;20003;-78
2023/12/11 02:37:55;;;;;;;;;;;-0.30;99.90;;;;;;5016829;28;19927;-78
2023/12/11 02:40:20;;;;;;;;;;;-0.20;99.90;;;;;;5017416;28;19905;-78
2023/12/11 02:42:47;;;;;;;;;;;-0.30;99.90;;;;;;5017605;28;19917;-78
2023/12/11 02:45:13;;;;;;;;;;;-0.30;99.90;;;;;;5015921;28;19905;-78
2023/12/11 02:47:38;;;;;;;;;;;-0.30;99.90;;;;;;5016951;28;19909;-78
2023/12/11 02:50:04;;;;;;;;;;;-0.20;99.90;;;;;;5015712;28;19963;-77
2023/12/11 02:52:29;;;;;;;;;;;-0.20;99.90;;;;;;5014390;28;20374;-78
2023/12/11 02:54:55;;;;;;;;;;;-0.20;99.90;;;;;;5015547;28;20362;-78
2023/12/11 02:57:20;;;;;;;;;;;-0.10;99.90;;;;;;5014811;28;19917;-78
2023/12/11 02:59:46;;;;;;;;;;;0.00;99.90;;;;;;5014433;28;19913;-79
2023/12/11 03:02:12;;;;;;;;;;;0.20;99.90;;;;;;5015212;28;19925;-78
2023/12/11 03:04:37;;;;;;;;;;;0.30;99.90;;;;;;5014765;28;19916;-77
2023/12/11 03:07:03;;;;;;;;;;;0.40;99.90;;;;;;5014875;28;19991;-78
2023/12/11 03:09:29;;;;;;;;;;;0.40;99.90;;;;;;5014164;28;19931;-78
2023/12/11 03:11:54;;;;;;;;;;;0.40;99.90;;;;;;5013005;28;20358;-78
2023/12/11 03:14:20;;;;;;;;;;;0.50;99.90;;;;;;5013395;28;19910;-77
2023/12/11 03:16:48;;;;;;;;;;;0.60;99.90;;;;;;5012354;28;19911;-77
2023/12/11 03:19:15;;;;;;;;;;;0.70;99.90;;;;;;5013516;28;19944;-78
2023/12/11 03:21:41;;;;;;;;;;;0.70;99.90;;;;;;5014704;28;20008;-78
2023/12/11 03:24:06;;;;;;;;;;;0.60;99.90;;;;;;5015040;28;19941;-78
2023/12/11 03:26:32;;;;;;;;;;;0.60;99.90;;;;;;5015806;28;20471;-78
2023/12/11 03:28:57;;;;;;;;;;;0.70;99.90;;;;;;5015142;28;19962;-77
2023/12/11 03:31:23;;;;;;;;;;;0.80;99.90;;;;;;5014608;28;19905;-77
2023/12/11 03:33:48;;;;;;;;;;;0.80;99.90;;;;;;5013430;28;19911;-77
2023/12/11 03:36:14;;;;;;;;;;;0.80;99.90;;;;;;5013077;28;19906;-78
2023/12/11 03:38:39;;;;;;;;;;;0.90;99.90;;;;;;5016254;28;19952;-77
2023/12/11 03:41:05;;;;;;;;;;;0.90;99.90;;;;;;5016103;28;19909;-78
2023/12/11 03:43:30;;;;;;;;;;;0.90;99.90;;;;;;5017060;28;19909;-78
2023/12/11 03:45:56;;;;;;;;;;;0.90;99.90;;;;;;5017272;28;19910;-77
2023/12/11 03:48:22;;;;;;;;;;;0.90;99.90;;;;;;5015788;28;20508;-78
2023/12/11 03:50:47;;;;;;;;;;;1.00;99.90;;;;;;5021010;28;20324;-78
2023/12/11 03:53:13;;;;;;;;;;;1.10;99.90;;;;;;5023033;28;19913;-78
2023/12/11 03:55:39;;;;;;;;;;;1.00;99.90;;;;;;5025522;28;19913;-77
2023/12/11 03:58:04;;;;;;;;;;;1.00;99.90;;;;;;5024353;28;19912;-78
2023/12/11 04:00:30;;;;;;;;;;;1.00;99.90;;;;;;5018798;28;19905;-78
2023/12/11 04:02:56;;;;;;;;;;;1.00;99.90;;;;;;5019800;28;20066;-78
2023/12/11 04:05:21;;;;;;;;;;;1.00;99.90;;;;;;5020732;28;19932;-79
2023/12/11 04:07:47;;;;;;;;;;;1.10;99.90;;;;;;5023840;28;19912;-78
2023/12/11 04:10:12;;;;;;;;;;;1.10;99.90;;;;;;5021850;28;19909;-78
2023/12/11 04:12:39;;;;;;;;;;;1.10;99.90;;;;;;5021620;28;19912;-78
2023/12/11 04:15:05;;;;;;;;;;;1.20;99.90;;;;;;5023314;28;19909;-79
2023/12/11 04:17:30;;;;;;;;;;;1.20;99.90;;;;;;5021279;28;19916;-78
2023/12/11 04:19:57;;;;;;;;;;;1.20;99.90;;;;;;5022599;28;19919;-78
2023/12/11 04:22:23;;;;;;;;;;;1.20;99.90;;;;;;5021373;28;20000;-78
2023/12/11 04:24:48;;;;;;;;;;;1.20;99.90;;;;;;5022097;28;19944;-78
2023/12/11 04:27:14;;;;;;;;;;;1.40;99.90;;;;;;5022741;28;19912;-78
2023/12/11 04:29:40;;;;;;;;;;;1.20;99.90;;;;;;5022704;28;20390;-79
2023/12/11 04:32:05;;;;;;;;;;;1.30;99.90;;;;;;5020885;28;19912;-78
2023/12/11 04:34:31;;;;;;;;;;;1.30;99.90;;;;;;5021037;28;19909;-78
2023/12/11 04:36:56;;;;;;;;;;;1.10;99.90;;;;;;5021928;28;20374;-79
2023/12/11 04:39:22;;;;;;;;;;;1.00;99.90;;;;;;5021945;28;19945;-78
2023/12/11 04:41:48;;;;;;;;;;;1.10;99.90;;;;;;5021659;28;19956;-78
2023/12/11 04:44:13;;;;;;;;;;;1.00;99.90;;;;;;5021086;28;19980;-78
2023/12/11 04:46:39;;;;;;;;;;;1.00;99.90;;;;;;5020635;28;19905;-78
2023/12/11 04:49:04;;;;;;;;;;;1.10;99.90;;;;;;5018092;28;19916;-77
2023/12/11 04:51:30;;;;;;;;;;;1.10;99.90;;;;;;5017716;28;20301;-77
2023/12/11 04:53:55;;;;;;;;;;;1.00;99.90;;;;;;5013776;28;19909;-77
2023/12/11 04:56:23;;;;;;;;;;;1.00;99.90;;;;;;5014944;28;20329;-77
2023/12/11 04:58:48;;;;;;;;;;;1.10;99.90;;;;;;5014855;28;19909;-77
2023/12/11 05:01:14;;;;;;;;;;;1.10;99.90;;;;;;5014210;28;19917;-77
2023/12/11 05:03:39;;;;;;;;;;;1.00;99.90;;;;;;5013829;28;19913;-78
2023/12/11 05:06:05;;;;;;;;;;;1.20;99.90;;;;;;5019284;28;19909;-80
2023/12/11 05:08:30;;;;;;;;;;;1.40;99.90;;;;;;5017548;28;19916;-77
2023/12/11 05:10:56;;;;;;;;;;;1.60;99.90;;;;;;5013714;28;20371;-77
2023/12/11 05:13:21;;;;;;;;;;;1.70;99.90;;;;;;5014662;28;20385;-78
2023/12/11 05:15:47;;;;;;;;;;;1.60;99.90;;;;;;5014692;28;19909;-78
2023/12/11 05:18:13;;;;;;;;;;;1.50;99.90;;;;;;5015266;28;19961;-77
2023/12/11 05:20:38;;;;;;;;;;;1.50;99.90;;;;;;5014337;28;19916;-77
2023/12/11 05:23:04;;;;;;;;;;;1.50;99.90;;;;;;5014609;28;19913;-78
2023/12/11 05:25:29;;;;;;;;;;;1.40;99.90;;;;;;5017199;28;20011;-77
2023/12/11 05:27:55;;;;;;;;;;;1.40;99.90;;;;;;5015478;28;20004;-78
2023/12/11 05:30:20;;;;;;;;;;;1.40;99.90;;;;;;5016528;28;19909;-78
2023/12/11 05:32:46;;;;;;;;;;;1.50;99.90;;;;;;5015920;28;19925;-77
2023/12/11 05:35:11;;;;;;;;;;;1.40;99.90;;;;;;5016492;28;19932;-78
2023/12/11 05:37:37;;;;;;;;;;;1.20;99.90;;;;;;5014928;28;19934;-78
2023/12/11 05:40:03;;;;;;;;;;;1.20;99.90;;;;;;5016764;28;19968;-78
2023/12/11 05:42:29;;;;;;;;;;;1.10;99.90;;;;;;5014800;28;19952;-79
2023/12/11 05:44:54;;;;;;;;;;;1.20;99.90;;;;;;5017251;28;19906;-78
2023/12/11 05:47:20;;;;;;;;;;;1.10;99.90;;;;;;5015788;28;20286;-78
2023/12/11 05:49:45;;;;;;;;;;;1.10;99.90;;;;;;5014351;28;20524;-78
2023/12/11 05:52:11;;;;;;;;;;;1.00;99.90;;;;;;5014432;28;19905;-78
2023/12/11 05:54:36;;;;;;;;;;;1.00;99.90;;;;;;5013437;28;19917;-78
2023/12/11 05:57:02;;;;;;;;;;;0.90;99.90;;;;;;5015496;28;19909;-78
2023/12/11 05:59:28;;;;;;;;;;;0.90;99.90;;;;;;5015386;28;19914;-78
2023/12/11 06:01:53;;;;;;;;;;;0.80;99.90;;;;;;5014467;28;20367;-77
2023/12/11 06:04:19;;;;;;;;;;;0.80;99.90;;;;;;5015015;28;19963;-76
2023/12/11 06:06:44;;;;;;;;;;;0.80;99.90;;;;;;5015393;28;19909;-78
2023/12/11 06:09:10;;;;;;;;;;;0.70;99.90;;;;;;5015569;28;19909;-78
2023/12/11 06:11:35;;;;;;;;;;;0.80;99.90;;;;;;5015625;28;19905;-78
2023/12/11 06:14:01;;;;;;;;;;;0.90;99.90;;;;;;5013168;28;19912;-77
2023/12/11 06:16:27;;;;;;;;;;;1.00;99.90;;;;;;5011944;28;19914;-77
2023/12/11 06:18:52;;;;;;;;;;;1.00;99.90;;;;;;5013097;28;19945;-77
2023/12/11 06:21:18;;;;;;;;;;;0.90;99.90;;;;;;5011705;28;19909;-77
2023/12/11 06:23:44;;;;;;;;;;;0.90;99.90;;;;;;5014800;28;19913;-78
2023/12/11 06:26:10;;;;;;;;;;;0.90;99.90;;;;;;5015131;28;19921;-78
2023/12/11 06:28:36;;;;;;;;;;;0.80;99.90;;;;;;5012208;28;19921;-77
2023/12/11 06:31:01;;;;;;;;;;;0.80;99.90;;;;;;5011313;28;19905;-77
2023/12/11 06:33:27;;;;;;;;;;;0.80;99.90;;;;;;5012189;28;20459;-79
2023/12/11 06:35:52;;;;;;;;;;;0.80;99.90;;;;;;5016858;28;20358;-78
2023/12/11 06:38:18;;;;;;;;;;;0.60;99.90;;;;;;5015950;28;20345;-78
2023/12/11 06:40:43;;;;;;;;;;;0.60;99.90;;;;;;5015968;28;20348;-78
2023/12/11 06:43:09;;;;;;;;;;;0.60;99.90;;;;;;5013129;28;20000;-77
2023/12/11 06:45:34;;;;;;;;;;;0.70;99.90;;;;;;5012494;28;20007;-79
2023/12/11 06:48:00;;;;;;;;;;;0.70;99.90;;;;;;5014630;28;19996;-78
2023/12/11 06:50:25;;;;;;;;;;;1.00;99.90;;;;;;5015791;28;19910;-77
2023/12/11 06:52:51;;;;;;;;;;;1.00;99.90;;;;;;5014232;28;19979;-77
2023/12/11 06:55:16;;;;;;;;;;;1.00;99.90;;;;;;5016747;28;19909;-79
2023/12/11 06:57:42;;;;;;;;;;;1.00;99.90;;;;;;5018249;28;20282;-77
2023/12/11 07:00:09;;;;;;;;;;;0.90;99.90;;;;;;5014629;28;19984;-77
2023/12/11 07:02:35;;;;;;;;;;;0.80;99.90;;;;;;5016177;28;20401;-79
2023/12/11 07:05:01;;;;;;;;;;;0.80;99.90;;;;;;5016759;28;20012;-78
2023/12/11 07:07:26;;;;;;;;;;;0.70;99.90;;;;;;5016988;28;19913;-78
2023/12/11 07:09:52;;;;;;;;;;;0.60;99.90;;;;;;5018802;28;19963;-78
2023/12/11 07:12:17;;;;;;;;;;;0.70;99.90;;;;;;5020626;28;19905;-78
2023/12/11 07:14:44;;;;;;;;;;;0.60;99.90;;;;;;5016957;28;20386;-77
2023/12/11 07:17:09;;;;;;;;;;;0.60;99.90;;;;;;5015540;28;19917;-78
2023/12/11 07:19:35;;;;;;;;;;;0.70;99.90;;;;;;5015709;28;19910;-76
2023/12/11 07:22:00;;;;;;;;;;;0.60;99.90;;;;;;5014944;28;19976;-77
2023/12/11 07:24:26;;;;;;;;;;;0.60;99.90;;;;;;5016138;28;20329;-77
2023/12/11 07:26:52;;;;;;;;;;;0.90;99.90;;;;;;5014988;28;19951;-76
2023/12/11 07:29:17;;;;;;;;;;;0.80;99.90;;;;;;5017804;28;19945;-77
2023/12/11 07:31:43;;;;;;;;;;;0.80;99.90;;;;;;5016705;28;19956;-77
2023/12/11 07:34:08;;;;;;;;;;;0.70;99.90;;;;;;5016807;28;19905;-77
2023/12/11 07:36:34;;;;;;;;;;;0.80;99.90;;;;;;5016566;28;19906;-77
2023/12/11 07:38:59;;;;;;;;;;;0.90;99.90;;;;;;5018254;28;20003;-78
2023/12/11 07:41:25;;;;;;;;;;;1.00;99.90;;;;;;5016691;28;19963;-76
2023/12/11 07:43:50;;;;;;;;;;;0.90;99.90;;;;;;5017942;28;20448;-76
2023/12/11 07:46:19;;;;;;;;;;;0.70;99.90;;;;;;5017803;28;20448;-77
2023/12/11 07:48:45;;;;;;;;;;;0.80;99.90;;;;;;5012620;28;19909;-77
2023/12/11 07:51:18;;;;;;;;;;;0.80;99.90;;;;;;5016556;28;19913;-78
2023/12/11 07:53:44;;;;;;;;;;;0.80;99.90;;;;;;5018026;28;19905;-78
2023/12/11 07:56:17;;;;;;;;;;;0.80;99.90;;;;;;5020861;28;19912;-77
2023/12/11 07:58:42;;;;;;;;;;;0.80;99.90;;;;;;5019964;28;19906;-78
2023/12/11 08:01:08;;;;;;;;;;;0.90;99.90;;;;;;5020638;28;19905;-78
2023/12/11 08:03:33;;;;;;;;;;;0.90;99.90;;;;;;5018733;28;19968;-76
2023/12/11 08:06:00;;;;;;;;;;;1.00;99.90;;;;;;5017664;28;19912;-77
2023/12/11 08:08:26;;;;;;;;;;;1.00;99.90;;;;;;5017773;28;19940;-78
2023/12/11 08:10:51;;;;;;;;;;;1.00;99.90;;;;;;5016540;28;20317;-76
2023/12/11 08:13:17;;;;;;;;;;;1.00;99.90;;;;;;5015179;28;19909;-76
2023/12/11 08:15:42;;;;;;;;;;;1.00;99.90;;;;;;5014749;28;19909;-76
2023/12/11 08:18:08;;;;;;;;;;;1.10;99.90;;;;;;5016296;28;19909;-77
2023/12/11 08:20:34;;;;;;;;;;;1.20;99.90;;;;;;5016828;28;19960;-77
2023/12/11 08:22:59;;;;;;;;;;;1.20;99.90;;;;;;5015392;28;20332;-77
2023/12/11 08:25:25;;;;;;;;;;;1.20;99.90;;;;;;5015896;28;19956;-77
2023/12/11 08:27:50;;;;;;;;;;;1.30;99.90;;;;;;5016826;28;20032;-78
2023/12/11 08:30:16;;;;;;;;;;;1.30;99.90;;;;;;5018458;28;20294;-77
2023/12/11 08:32:42;;;;;;;;;;;1.50;99.90;;;;;;5018663;28;19968;-78
2023/12/11 08:35:08;;;;;;;;;;;1.60;99.90;;;;;;5017544;28;20487;-77
2023/12/11 08:37:34;;;;;;;;;;;1.60;99.90;;;;;;5021222;28;19932;-77
2023/12/11 08:39:59;;;;;;;;;;;1.50;99.90;;;;;;5009608;28;19964;-76
2023/12/11 08:42:25;;;;;;;;;;;1.60;99.90;;;;;;5014354;28;19917;-76
2023/12/11 08:44:50;;;;;;;;;;;1.60;99.90;;;;;;5014244;28;19913;-77
2023/12/11 08:47:18;;;;;;;;;;;1.50;99.90;;;;;;5013175;28;19909;-76
2023/12/11 08:49:44;;;;;;;;;;;1.70;99.90;;;;;;5013485;28;19905;-77
2023/12/11 08:52:09;;;;;;;;;;;1.70;99.90;;;;;;5015103;28;19917;-76
2023/12/11 08:54:35;;;;;;;;;;;1.60;99.90;;;;;;5014519;28;19905;-76
2023/12/11 08:57:00;;;;;;;;;;;1.70;99.90;;;;;;5015142;28;19917;-77
2023/12/11 08:59:26;;;;;;;;;;;1.70;99.90;;;;;;5015094;28;20445;-77
2023/12/11 09:01:51;;;;;;;;;;;1.50;99.90;;;;;;5015583;28;19913;-78
2023/12/11 09:04:17;;;;;;;;;;;1.50;99.90;;;;;;5016207;28;20270;-77
2023/12/11 09:06:42;;;;;;;;;;;1.60;99.90;;;;;;5018368;28;19905;-78
2023/12/11 09:09:08;;;;;;;;;;;1.70;99.90;;;;;;5014713;28;19905;-76
2023/12/11 09:11:33;;;;;;;;;;;1.80;99.90;;;;;;5015061;28;19909;-76
2023/12/11 09:14:02;;;;;;;;;;;1.80;99.90;;;;;;5014189;28;19949;-76
2023/12/11 09:16:27;;;;;;;;;;;1.80;99.90;;;;;;5011561;28;19909;-76
2023/12/11 09:18:53;;;;;;;;;;;1.80;99.90;;;;;;5015345;28;20003;-77
2023/12/11 09:21:19;;;;;;;;;;;1.90;99.90;;;;;;5013571;28;20306;-76
2023/12/11 09:23:45;;;;;;;;;;;1.90;99.90;;;;;;5017152;28;19952;-77
2023/12/11 09:26:11;;;;;;;;;;;1.90;99.90;;;;;;5014606;28;20390;-76
2023/12/11 09:28:39;;;;;;;;;;;1.80;99.90;;;;;;5013723;28;19909;-77
2023/12/11 09:31:04;;;;;;;;;;;1.90;99.90;;;;;;5015156;28;20032;-77
2023/12/11 09:33:30;;;;;;;;;;;1.90;99.90;;;;;;5014749;28;20493;-77
2023/12/11 09:35:56;;;;;;;;;;;1.90;99.90;;;;;;5012181;28;19953;-76
2023/12/11 09:38:22;;;;;;;;;;;2.00;99.90;;;;;;5014580;28;19996;-77
2023/12/11 09:40:47;;;;;;;;;;;2.00;99.90;;;;;;5013177;28;20370;-76
2023/12/11 09:43:14;;;;;;;;;;;2.00;99.90;;;;;;5013693;28;20293;-77
2023/12/11 09:45:41;;;;;;;;;;;1.90;99.90;;;;;;5011718;28;19905;-77
2023/12/11 09:48:07;;;;;;;;;;;2.10;99.90;;;;;;5013015;28;19920;-78
2023/12/11 09:50:32;;;;;;;;;;;1.90;99.90;;;;;;5014119;28;19945;-78
2023/12/11 09:52:59;;;;;;;;;;;2.00;99.90;;;;;;5013665;28;19905;-77
2023/12/11 09:55:25;;;;;;;;;;;2.00;99.90;;;;;;5013443;28;19905;-77
2023/12/11 09:57:51;;;;;;;;;;;2.30;99.90;;;;;;5011119;28;19999;-77
2023/12/11 10:00:17;;;;;;;;;;;2.10;99.90;;;;;;5013762;28;19913;-76
2023/12/11 10:02:46;;;;;;;;;;;2.00;99.90;;;;;;5016490;28;20294;-77
2023/12/11 10:05:16;;;;;;;;;;;2.00;99.90;;;;;;5114308;22;19925;-76
2023/12/11 10:07:42;;;;;;;;;;;2.10;99.90;;;;;;5017199;28;19910;-77
2023/12/11 10:10:23;;;;;;;;;;;2.40;99.90;;;;;;5015769;28;20067;-77
2023/12/11 10:12:48;;;;;;;;;;;2.20;99.90;;;;;;5017634;28;19909;-77
2023/12/11 10:15:18;;;;;;;;;;;2.20;99.90;;;;;;5016307;28;19995;-78
2023/12/11 10:17:43;;;;;;;;;;;2.30;99.90;;;;;;5016016;28;19906;-76
2023/12/11 10:20:16;;;;;;;;;;;2.30;99.90;;;;;;5016054;28;20008;-77
2023/12/11 10:22:41;;;;;;;;;;;2.30;99.90;;;;;;5015914;28;19918;-77
2023/12/11 10:25:07;;;;;;;;;;;2.40;99.90;;;;;;5017006;28;19952;-78
2023/12/11 10:27:33;;;;;;;;;;;2.40;99.90;;;;;;5019194;28;20305;-76
2023/12/11 10:30:06;;;;;;;;;;;2.60;99.90;;;;;;5018564;28;20325;-77
2023/12/11 10:32:32;;;;;;;;;;;2.40;99.90;;;;;;5017004;28;19906;-78
2023/12/11 10:34:57;;;;;;;;;;;2.50;99.90;;;;;;5018192;28;19916;-77
2023/12/11 10:37:28;;;;;;;;;;;2.50;99.90;;;;;;5016966;28;19913;-78
2023/12/11 10:39:54;;;;;;;;;;;2.50;99.90;;;;;;5018764;28;19912;-77
2023/12/11 10:42:19;;;;;;;;;;;2.50;99.90;;;;;;5016487;28;19913;-77
2023/12/11 10:44:45;;;;;;;;;;;2.50;99.90;;;;;;5018143;28;20004;-77
2023/12/11 10:47:11;;;;;;;;;;;2.60;99.90;;;;;;5018061;28;19917;-77
2023/12/11 10:49:36;;;;;;;;;;;2.60;99.90;;;;;;5017086;28;20008;-78
2023/12/11 10:52:02;;;;;;;;;;;2.50;99.90;;;;;;5018122;28;20290;-78
2023/12/11 10:54:28;;;;;;;;;;;2.40;99.90;;;;;;5019181;28;19935;-77
2023/12/11 10:56:55;;;;;;;;;;;2.40;99.90;;;;;;5019705;28;19905;-77
2023/12/11 10:59:21;;;;;;;;;;;2.40;99.90;;;;;;5018019;28;19910;-78
2023/12/11 11:01:48;;;;;;;;;;;2.50;99.90;;;;;;5019496;28;19913;-77
2023/12/11 11:04:15;;;;;;;;;;;2.60;99.90;;;;;;5020286;28;19921;-78
2023/12/11 11:07:01;;;;;;;;;;;2.50;99.90;;;;;;5017870;28;20353;-77
2023/12/11 11:09:32;;;;;;;;;;;2.50;99.90;;;;;;5016348;28;19959;-77
2023/12/11 11:12:02;;;;;;;;;;;2.60;99.90;;;;;;5019848;28;19984;-77
2023/12/11 11:14:47;;;;;;;;;;;2.70;99.90;;;;;;5019739;28;19916;-77
2023/12/11 11:17:14;;;;;;;;;;;2.80;99.90;;;;;;5020470;28;20436;-77
2023/12/11 11:19:59;;;;;;;;;;;2.80;99.90;;;;;;5019558;28;19937;-76
2023/12/11 11:22:25;;;;;;;;;;;2.80;99.90;;;;;;5016211;28;19918;-76
2023/12/11 11:24:50;;;;;;;;;;;2.80;99.90;;;;;;5016898;28;20436;-77
2023/12/11 11:27:35;;;;;;;;;;;2.90;99.90;;;;;;5018180;28;20011;-78
2023/12/11 11:30:00;;;;;;;;;;;2.90;99.90;;;;;;5018477;28;19909;-77
2023/12/11 11:32:46;;;;;;;;;;;2.90;99.90;;;;;;5018368;28;20468;-77
2023/12/11 11:35:31;;;;;;;;;;;2.90;99.90;;;;;;5022766;28;19906;-77
2023/12/11 11:37:57;;;;;;;;;;;2.90;99.90;;;;;;5021508;28;19941;-77
2023/12/11 11:40:33;;;;;;;;;;;2.90;99.90;;;;;;5017742;28;19932;-77
2023/12/11 11:42:58;;;;;;;;;;;2.90;99.90;;;;;;5015622;28;20212;-77
2023/12/11 11:45:24;;;;;;;;;;;2.90;99.90;;;;;;5014840;28;19928;-76
2023/12/11 11:47:51;;;;;;;;;;;2.70;99.90;;;;;;5015267;28;19936;-77
2023/12/11 11:50:18;;;;;;;;;;;2.80;99.90;;;;;;5017412;28;19928;-77
2023/12/11 11:52:46;;;;;;;;;;;2.70;99.90;;;;;;5017919;28;19948;-77
2023/12/11 11:55:15;;;;;;;;;;;2.80;99.90;;;;;;5019017;28;19952;-78
2023/12/11 11:57:40;;;;;;;;;;;2.80;99.90;;;;;;5014215;28;19905;-77
2023/12/11 12:00:06;;;;;;;;;;;2.80;99.90;;;;;;5015307;28;19959;-77
2023/12/11 12:02:32;;;;;;;;;;;2.80;99.90;;;;;;5014252;28;19917;-77
2023/12/11 12:05:07;;;;;;;;;;;2.80;99.90;;;;;;5014106;28;19917;-76
2023/12/11 12:07:32;;;;;;;;;;;2.80;99.90;;;;;;5014787;28;19916;-77
2023/12/11 12:09:59;;;;;;;;;;;2.80;99.90;;;;;;5016992;28;19909;-77
2023/12/11 12:12:26;;;;;;;;;;;2.70;99.90;;;;;;5019408;28;20374;-77
2023/12/11 12:15:02;;;;;;;;;;;2.80;99.90;;;;;;5019110;28;19952;-77
2023/12/11 12:17:27;;;;;;;;;;;2.80;99.90;;;;;;5018177;28;19909;-78
2023/12/11 12:19:53;;;;;;;;;;;2.90;99.90;;;;;;5016669;28;19910;-77
2023/12/11 12:22:19;;;;;;;;;;;3.00;99.90;;;;;;5013392;28;19928;-78
2023/12/11 12:24:48;;;;;;;;;;;3.10;99.90;;;;;;5016617;28;19916;-77
2023/12/11 12:27:18;;;;;;;;;;;3.00;99.90;;;;;;5017559;28;19906;-77
2023/12/11 12:29:45;;;;;;;;;;;2.90;99.90;;;;;;5016619;28;19905;-77
2023/12/11 12:32:12;;;;;;;;;;;2.60;99.90;;;;;;5015657;28;20039;-77
2023/12/11 12:34:38;;;;;;;;;;;2.80;99.90;;;;;;5017878;28;19909;-77
2023/12/11 12:37:05;;;;;;;;;;;3.00;99.90;;;;;;5016572;28;19997;-77
2023/12/11 12:39:30;;;;;;;;;;;2.90;99.90;;;;;;5017628;28;19909;-77
2023/12/11 12:41:56;;;;;;;;;;;2.90;99.90;;;;;;5016770;28;19916;-76
2023/12/11 12:44:21;;;;;;;;;;;3.00;99.90;;;;;;5017266;28;20386;-77
2023/12/11 12:46:47;;;;;;;;;;;2.80;99.90;;;;;;5016929;28;20341;-78
2023/12/11 12:49:14;;;;;;;;;;;2.60;99.90;;;;;;5018153;28;19906;-77
2023/12/11 12:51:54;;;;;;;;;;;2.70;99.90;;;;;;5017623;28;19909;-76
2023/12/11 12:54:21;;;;;;;;;;;2.80;99.90;;;;;;5015163;28;19905;-77
2023/12/11 12:56:58;;;;;;;;;;;2.80;99.90;;;;;;5014997;28;19905;-76
2023/12/11 12:59:24;;;;;;;;;;;2.90;99.90;;;;;;5016284;28;19905;-77
2023/12/11 13:01:50;;;;;;;;;;;2.90;99.90;;;;;;5016540;28;19916;-76
2023/12/11 13:04:15;;;;;;;;;;;2.80;99.90;;;;;;5015567;28;19917;-77
2023/12/11 13:06:41;;;;;;;;;;;2.90;99.90;;;;;;5015243;28;19988;-78
2023/12/11 13:09:08;;;;;;;;;;;2.90;99.90;;;;;;5016694;28;20258;-77
2023/12/11 13:11:53;;;;;;;;;;;2.90;99.90;;;;;;5017614;28;19910;-78
2023/12/11 13:14:19;;;;;;;;;;;3.00;99.90;;;;;;5020403;28;19953;-78
2023/12/11 13:16:44;;;;;;;;;;;3.00;99.90;;;;;;5020046;28;20271;-78
2023/12/11 13:19:11;;;;;;;;;;;3.10;99.90;;;;;;5021179;28;19909;-77
2023/12/11 13:21:36;;;;;;;;;;;3.00;99.90;;;;;;5019835;28;19913;-78
2023/12/11 13:24:04;;;;;;;;;;;3.10;99.90;;;;;;5019707;28;19960;-78
2023/12/11 13:26:30;;;;;;;;;;;3.00;99.90;;;;;;5018935;28;20349;-79
2023/12/11 13:28:55;;;;;;;;;;;3.00;99.90;;;;;;5019311;28;19931;-78
2023/12/11 13:31:21;;;;;;;;;;;3.00;99.90;;;;;;5018402;28;19909;-77
2023/12/11 13:33:47;;;;;;;;;;;3.00;99.90;;;;;;5019193;28;19916;-78
2023/12/11 13:36:15;;;;;;;;;;;3.00;99.90;;;;;;5017514;28;19909;-78
2023/12/11 13:38:41;;;;;;;;;;;3.00;99.90;;;;;;5018301;28;19909;-78
2023/12/11 13:41:07;;;;;;;;;;;3.00;99.90;;;;;;5018519;28;19915;-77
2023/12/11 13:43:32;;;;;;;;;;;3.00;99.90;;;;;;5020984;28;20385;-78
2023/12/11 13:45:59;;;;;;;;;;;2.70;99.90;;;;;;5022774;28;19949;-78
2023/12/11 13:48:25;;;;;;;;;;;2.50;99.90;;;;;;5018071;28;19910;-77
2023/12/11 13:50:51;;;;;;;;;;;2.50;99.90;;;;;;5018298;28;20051;-78
2023/12/11 13:53:16;;;;;;;;;;;2.30;99.90;;;;;;5015471;28;19913;-78
2023/12/11 13:55:42;;;;;;;;;;;2.10;99.90;;;;;;5016193;28;20269;-79
2023/12/11 13:58:07;;;;;;;;;;;2.10;99.90;;;;;;5017477;28;19905;-78
2023/12/11 14:00:33;;;;;;;;;;;2.20;99.90;;;;;;5016581;28;19927;-77
2023/12/11 14:02:58;;;;;;;;;;;2.30;99.90;;;;;;5014949;28;19921;-77
2023/12/11 14:05:24;;;;;;;;;;;2.30;99.90;;;;;;5016807;28;19923;-78
2023/12/11 14:07:52;;;;;;;;;;;2.30;99.90;;;;;;5016666;28;19975;-78
2023/12/11 14:10:18;;;;;;;;;;;2.40;99.90;;;;;;5018403;28;19909;-78
2023/12/11 14:12:43;;;;;;;;;;;2.40;99.90;;;;;;5018223;28;19909;-78
2023/12/11 14:15:09;;;;;;;;;;;2.40;99.90;;;;;;5017832;28;20007;-77
2023/12/11 14:17:35;;;;;;;;;;;2.40;99.90;;;;;;5015876;28;19916;-77
2023/12/11 14:20:00;;;;;;;;;;;2.40;99.90;;;;;;5016339;28;19913;-78
2023/12/11 14:22:26;;;;;;;;;;;2.30;99.90;;;;;;5016650;28;19913;-79
2023/12/11 14:24:52;;;;;;;;;;;2.30;99.90;;;;;;5017623;28;19916;-78